Natural Bridge, Kentucky
Current Conditions -  °F | °C
As of 11:35 AM on Tuesday 27 Jan 2015 (Local Time) from KIOB Reporting Station
Clear Clear  
Wind Chill: 25°   Ceiling: Unl
Heat Index: 30°   Visibility: 10mi
Dew Point: 12°   Wind: 5mph
Humidity: 47%   Direction: 50°NE
Pressure: 30.05"   Gusts: NA
Location:  37.7973°N, 83.6839°W
Report Text: KIOB 271635Z AUTO 05004KT 10SM CLR M01/M11 A3005 RMK AO2
Loading
Personal Weather Stations






























Interactive Weather Map New forecast layout! Learn more

10-Day Weather Forecast

Advertisements
Track Severe Weather on mobile